createdAt,value
2018-09-18T00:00:30.598Z,15.61
2018-09-18T00:02:59.086Z,15.54
2018-09-18T00:05:27.707Z,15.56
2018-09-18T00:07:56.176Z,15.53
2018-09-18T00:10:24.725Z,15.51
2018-09-18T00:12:53.260Z,15.53
2018-09-18T00:15:22.709Z,15.48
2018-09-18T00:17:51.221Z,15.48
2018-09-18T00:20:19.690Z,15.51
2018-09-18T00:22:48.290Z,15.51
2018-09-18T00:25:17.361Z,15.50
2018-09-18T00:27:46.551Z,15.49
2018-09-18T00:30:15.159Z,15.53
2018-09-18T00:32:43.636Z,15.52
2018-09-18T00:35:12.216Z,15.51
2018-09-18T00:37:40.776Z,15.50
2018-09-18T00:40:09.324Z,15.46
2018-09-18T00:42:37.838Z,15.49
2018-09-18T00:45:06.379Z,15.43
2018-09-18T00:47:35.020Z,15.42
2018-09-18T00:50:03.530Z,15.40
2018-09-18T00:52:32.171Z,15.41
2018-09-18T00:55:00.849Z,15.40
2018-09-18T00:57:29.520Z,15.42
2018-09-18T00:59:58.002Z,15.46
2018-09-18T01:02:26.734Z,15.51
2018-09-18T01:04:56.117Z,15.49
2018-09-18T01:07:24.714Z,15.48
2018-09-18T01:09:53.533Z,15.43
2018-09-18T01:12:22.200Z,15.41
2018-09-18T01:14:50.585Z,15.40
2018-09-18T01:17:19.512Z,15.40
2018-09-18T01:19:47.920Z,15.34
2018-09-18T01:22:16.555Z,15.30
2018-09-18T01:24:45.608Z,15.28
2018-09-18T01:27:14.167Z,15.25
2018-09-18T01:29:42.976Z,15.18
2018-09-18T01:32:11.632Z,15.23
2018-09-18T01:34:40.116Z,15.16
2018-09-18T01:37:08.591Z,15.12
2018-09-18T01:39:37.084Z,15.12
2018-09-18T01:42:05.605Z,15.13
2018-09-18T01:44:34.308Z,15.12
2018-09-18T01:47:03.046Z,15.12
2018-09-18T01:49:32.475Z,15.08
2018-09-18T01:52:01.160Z,15.06
2018-09-18T01:54:29.761Z,15.01
2018-09-18T01:56:59.486Z,14.97
2018-09-18T01:59:28.118Z,14.94
2018-09-18T02:01:57.410Z,14.93
2018-09-18T02:04:26.392Z,14.92
2018-09-18T02:06:55.067Z,14.84
2018-09-18T02:09:23.590Z,14.79
2018-09-18T02:11:52.242Z,14.83
2018-09-18T02:14:20.864Z,14.85
2018-09-18T02:16:49.395Z,14.78
2018-09-18T02:19:17.899Z,14.71
2018-09-18T02:21:46.309Z,14.66
2018-09-18T02:24:14.946Z,14.69
2018-09-18T02:26:43.518Z,14.64
2018-09-18T02:29:12.057Z,14.61
2018-09-18T02:31:40.732Z,14.57
2018-09-18T02:34:09.279Z,14.62
2018-09-18T02:36:37.901Z,14.57
2018-09-18T02:39:09.466Z,14.56
2018-09-18T02:41:38.303Z,14.54
2018-09-18T02:44:06.835Z,14.51
2018-09-18T02:46:35.472Z,14.47
2018-09-18T02:49:04.132Z,14.49
2018-09-18T02:51:33.339Z,14.48
2018-09-18T02:54:01.847Z,14.47
2018-09-18T02:56:30.390Z,14.48
2018-09-18T02:58:59.115Z,14.48
2018-09-18T03:01:27.762Z,14.46
2018-09-18T03:03:56.263Z,14.45
2018-09-18T03:06:25.183Z,14.45
2018-09-18T03:08:54.846Z,14.39
2018-09-18T03:11:23.542Z,14.38
2018-09-18T03:13:52.455Z,14.32
2018-09-18T03:16:21.725Z,14.34
2018-09-18T03:18:50.447Z,14.28
2018-09-18T03:21:18.921Z,14.21
2018-09-18T03:23:47.405Z,14.12
2018-09-18T03:26:16.680Z,14.11
2018-09-18T03:28:45.186Z,14.10
2018-09-18T03:31:14.164Z,14.11
2018-09-18T03:33:43.038Z,14.07
2018-09-18T03:36:11.664Z,14.07
2018-09-18T03:38:40.235Z,14.05
2018-09-18T03:41:08.821Z,14.05
2018-09-18T03:43:37.473Z,13.99
2018-09-18T03:46:06.090Z,14.01
2018-09-18T03:48:34.713Z,13.97
2018-09-18T03:51:03.322Z,13.91
2018-09-18T03:53:31.939Z,13.94
2018-09-18T03:56:00.633Z,13.87
2018-09-18T03:58:29.174Z,13.89
2018-09-18T04:00:57.646Z,13.87
2018-09-18T04:03:26.140Z,13.86
2018-09-18T04:05:55.374Z,13.88
2018-09-18T04:08:23.973Z,13.90
2018-09-18T04:10:52.466Z,13.83
2018-09-18T04:13:20.935Z,13.83
2018-09-18T04:15:50.068Z,13.83
2018-09-18T04:18:21.431Z,13.80
2018-09-18T04:20:50.074Z,13.84
2018-09-18T04:23:19.016Z,13.86
2018-09-18T04:25:47.699Z,13.85
2018-09-18T04:28:16.150Z,13.85
2018-09-18T04:30:44.630Z,13.84
2018-09-18T04:33:13.037Z,13.84
2018-09-18T04:35:41.440Z,13.80
2018-09-18T04:38:09.822Z,13.80
2018-09-18T04:40:38.555Z,13.79
2018-09-18T04:43:07.215Z,13.79
2018-09-18T04:45:35.781Z,13.78
2018-09-18T04:48:06.095Z,13.80
2018-09-18T04:50:34.587Z,13.78
2018-09-18T04:53:04.064Z,13.84
2018-09-18T04:55:32.596Z,13.85
2018-09-18T04:58:01.024Z,13.81
2018-09-18T05:00:29.522Z,13.82
2018-09-18T05:02:58.071Z,13.83
2018-09-18T05:05:27.190Z,13.85
2018-09-18T05:07:55.698Z,13.85
2018-09-18T05:10:24.953Z,13.87
2018-09-18T05:12:53.400Z,13.87
2018-09-18T05:15:23.114Z,13.89
2018-09-18T05:17:51.617Z,13.93
2018-09-18T05:20:20.097Z,13.95
2018-09-18T05:22:48.565Z,13.97
2018-09-18T05:25:17.502Z,13.98
2018-09-18T05:27:47.551Z,13.99
2018-09-18T05:30:16.062Z,14.04
2018-09-18T05:32:44.614Z,14.04
2018-09-18T05:35:13.714Z,14.07
2018-09-18T05:37:42.193Z,14.14
2018-09-18T05:40:10.756Z,14.15
2018-09-18T05:42:39.449Z,14.29
2018-09-18T05:45:07.951Z,14.32
2018-09-18T05:47:36.424Z,14.38
2018-09-18T05:50:06.050Z,14.44
2018-09-18T05:52:34.607Z,14.46
2018-09-18T05:55:03.105Z,14.49
2018-09-18T05:57:31.662Z,14.53
2018-09-18T06:00:00.267Z,14.56
2018-09-18T06:02:28.978Z,14.60
2018-09-18T06:04:57.483Z,14.71
2018-09-18T06:07:26.098Z,14.80
2018-09-18T06:09:55.251Z,14.96
2018-09-18T06:12:23.987Z,15.06
2018-09-18T06:14:53.177Z,15.19
2018-09-18T06:17:21.988Z,15.30
2018-09-18T06:19:50.453Z,15.44
2018-09-18T06:22:18.957Z,15.62
2018-09-18T06:24:47.764Z,15.67
2018-09-18T06:27:16.362Z,15.73
2018-09-18T06:29:44.835Z,15.85
2018-09-18T06:32:13.211Z,15.85
2018-09-18T06:34:41.720Z,15.92
2018-09-18T06:37:10.160Z,16.03
2018-09-18T06:39:38.704Z,16.16
2018-09-18T06:42:07.200Z,16.33
2018-09-18T06:44:35.723Z,16.48
2018-09-18T06:47:04.448Z,16.53
2018-09-18T06:49:32.916Z,16.64
2018-09-18T06:52:01.369Z,16.73
2018-09-18T06:54:29.773Z,16.87
2018-09-18T06:56:58.204Z,16.95
2018-09-18T06:59:26.823Z,17.04
2018-09-18T07:01:55.443Z,17.11
2018-09-18T07:04:23.922Z,17.28
2018-09-18T07:06:52.814Z,17.43
2018-09-18T07:09:21.225Z,17.60
2018-09-18T07:11:49.736Z,17.67
2018-09-18T07:14:18.187Z,17.85
2018-09-18T07:16:46.639Z,18.07
2018-09-18T07:19:15.886Z,18.21
2018-09-18T07:21:44.320Z,18.33
2018-09-18T07:24:12.875Z,18.70
2018-09-18T07:26:41.297Z,19.12
2018-09-18T07:29:09.978Z,19.38
2018-09-18T07:31:38.433Z,19.56
2018-09-18T07:34:07.165Z,19.89
2018-09-18T07:36:35.593Z,20.67
2018-09-18T07:39:05.237Z,21.12
2018-09-18T07:41:33.655Z,21.30
2018-09-18T07:44:02.044Z,21.59
2018-09-18T07:46:30.530Z,21.76
2018-09-18T07:49:02.004Z,21.76
2018-09-18T07:51:31.237Z,21.80
2018-09-18T07:54:00.085Z,21.78
2018-09-18T07:56:29.427Z,21.74
2018-09-18T07:58:59.030Z,21.79
2018-09-18T08:01:27.553Z,22.28
2018-09-18T08:03:56.033Z,22.16
2018-09-18T08:06:24.468Z,22.20
2018-09-18T08:08:52.883Z,22.55
2018-09-18T08:11:21.371Z,22.98
2018-09-18T08:13:49.864Z,23.20
2018-09-18T08:16:18.243Z,23.38
2018-09-18T08:18:46.704Z,23.35
2018-09-18T08:21:15.106Z,23.63
2018-09-18T08:23:43.538Z,24.24
2018-09-18T08:26:11.991Z,24.64
2018-09-18T08:28:40.444Z,24.78
2018-09-18T08:31:08.922Z,24.97
2018-09-18T08:33:37.657Z,25.07
2018-09-18T08:36:06.059Z,25.03
2018-09-18T08:38:34.539Z,24.96
2018-09-18T08:41:03.207Z,24.99
2018-09-18T08:43:31.635Z,24.61
2018-09-18T08:46:00.420Z,24.79
2018-09-18T08:48:29.930Z,24.82
2018-09-18T08:51:00.387Z,25.03
2018-09-18T08:53:29.749Z,24.95
2018-09-18T08:55:58.219Z,25.03
2018-09-18T08:58:26.632Z,25.01
2018-09-18T09:00:55.102Z,25.09
2018-09-18T09:03:23.623Z,25.23
2018-09-18T09:05:52.080Z,25.34
2018-09-18T09:08:20.657Z,25.46
2018-09-18T09:10:49.006Z,25.58
2018-09-18T09:13:17.509Z,25.62
2018-09-18T09:15:46.036Z,25.78
2018-09-18T09:18:14.612Z,25.78
2018-09-18T09:20:43.016Z,25.90
2018-09-18T09:23:11.786Z,26.05
2018-09-18T09:25:40.251Z,26.07
2018-09-18T09:28:08.637Z,26.19
2018-09-18T09:30:37.132Z,26.38
2018-09-18T09:33:05.646Z,26.42
2018-09-18T09:35:34.307Z,26.52
2018-09-18T09:38:02.805Z,26.62
2018-09-18T09:40:31.192Z,26.71
2018-09-18T09:42:59.619Z,26.79
2018-09-18T09:45:28.069Z,26.98
2018-09-18T09:47:57.264Z,27.01
2018-09-18T09:50:25.698Z,27.02
2018-09-18T09:52:54.127Z,27.15
2018-09-18T09:55:22.591Z,27.06
2018-09-18T09:57:51.143Z,27.22
2018-09-18T10:00:24.950Z,27.35
2018-09-18T10:02:53.441Z,27.25
2018-09-18T10:05:21.881Z,27.43
2018-09-18T10:07:50.631Z,27.62
2018-09-18T10:10:19.020Z,27.74
2018-09-18T10:12:47.392Z,27.76
2018-09-18T10:15:15.807Z,27.71
2018-09-18T10:17:44.391Z,27.84
2018-09-18T10:20:12.806Z,27.87
2018-09-18T10:22:41.265Z,27.91
2018-09-18T10:25:09.742Z,27.98
2018-09-18T10:27:38.196Z,28.00
2018-09-18T10:30:07.464Z,28.02
2018-09-18T10:32:35.941Z,28.16
2018-09-18T10:35:04.396Z,28.18
2018-09-18T10:37:32.873Z,28.41
2018-09-18T10:40:01.335Z,28.60
2018-09-18T10:42:29.824Z,28.58
2018-09-18T10:44:58.767Z,28.67
2018-09-18T10:47:27.208Z,28.75
2018-09-18T10:49:55.689Z,28.79
2018-09-18T10:52:24.082Z,28.89
2018-09-18T10:54:52.572Z,28.87
2018-09-18T10:57:20.995Z,28.87
2018-09-18T10:59:49.384Z,28.91
2018-09-18T11:02:17.966Z,29.01
2018-09-18T11:04:46.394Z,29.05
2018-09-18T11:07:14.942Z,29.19
2018-09-18T11:09:43.323Z,29.26
2018-09-18T11:12:11.777Z,29.25
2018-09-18T11:14:40.317Z,29.16
2018-09-18T11:17:08.880Z,29.21
2018-09-18T11:19:37.357Z,29.28
2018-09-18T11:22:05.742Z,29.36
2018-09-18T11:24:34.761Z,29.32
2018-09-18T11:27:03.146Z,29.27
2018-09-18T11:29:31.708Z,29.36
2018-09-18T11:32:00.624Z,29.22
2018-09-18T11:34:29.106Z,29.25
2018-09-18T11:36:57.580Z,29.34
2018-09-18T11:39:26.438Z,29.45
2018-09-18T11:41:55.264Z,29.38
2018-09-18T11:44:24.221Z,29.52
2018-09-18T11:46:52.545Z,29.51
2018-09-18T11:49:21.012Z,29.56
2018-09-18T11:51:49.417Z,29.48
2018-09-18T11:54:17.857Z,29.49
2018-09-18T11:56:46.539Z,29.34
2018-09-18T11:59:14.850Z,29.52
2018-09-18T12:01:44.370Z,29.46
2018-09-18T12:04:13.031Z,29.45
2018-09-18T12:06:41.470Z,29.45
2018-09-18T12:09:10.990Z,29.50
2018-09-18T12:11:39.594Z,29.54
2018-09-18T12:14:08.135Z,29.57
2018-09-18T12:16:36.725Z,29.65
2018-09-18T12:19:05.215Z,29.58
2018-09-18T12:21:33.650Z,29.71
2018-09-18T12:24:02.131Z,29.66
2018-09-18T12:26:30.647Z,29.66
2018-09-18T12:28:59.198Z,29.66
2018-09-18T12:31:27.563Z,29.70
2018-09-18T12:33:56.027Z,29.65
2018-09-18T12:36:24.478Z,29.79
2018-09-18T12:38:52.915Z,29.85
2018-09-18T12:41:21.506Z,29.81
2018-09-18T12:43:49.876Z,29.79
2018-09-18T12:46:18.327Z,29.91
2018-09-18T12:48:46.866Z,29.96
2018-09-18T12:51:15.266Z,30.01
2018-09-18T12:53:43.961Z,29.89
2018-09-18T12:56:12.489Z,29.99
2018-09-18T12:58:41.130Z,30.04
2018-09-18T13:01:09.593Z,29.94
2018-09-18T13:03:38.232Z,30.13
2018-09-18T13:06:06.925Z,30.15
2018-09-18T13:08:35.623Z,30.14
2018-09-18T13:11:19.547Z,30.07
2018-09-18T13:13:48.245Z,30.15
2018-09-18T13:16:16.945Z,30.16
2018-09-18T13:18:45.719Z,30.25
2018-09-18T13:21:14.324Z,30.28
2018-09-18T13:23:42.939Z,30.34
2018-09-18T13:26:11.493Z,30.38
2018-09-18T13:28:40.138Z,30.46
2018-09-18T13:31:08.600Z,30.40
2018-09-18T13:33:37.143Z,30.31
2018-09-18T13:36:11.474Z,30.25
2018-09-18T13:38:40.234Z,30.14
2018-09-18T13:41:10.000Z,30.15
2018-09-18T13:43:39.434Z,30.10
2018-09-18T13:46:12.294Z,30.24
2018-09-18T13:48:41.803Z,30.21
2018-09-18T13:51:11.409Z,30.22
2018-09-18T13:53:41.056Z,30.13
2018-09-18T13:56:10.530Z,30.20
2018-09-18T13:58:40.051Z,30.18
2018-09-18T14:01:08.691Z,30.10
2018-09-18T14:03:37.145Z,30.26
2018-09-18T14:06:05.664Z,29.99
2018-09-18T14:08:34.285Z,30.07
2018-09-18T14:11:03.445Z,30.07
2018-09-18T14:13:32.204Z,30.15
2018-09-18T14:16:01.022Z,30.16
2018-09-18T14:18:29.563Z,30.16
2018-09-18T14:20:58.170Z,30.22
2018-09-18T14:23:26.937Z,30.14
2018-09-18T14:25:56.037Z,30.18
2018-09-18T14:28:24.628Z,30.18
2018-09-18T14:30:53.157Z,30.15
2018-09-18T14:33:22.028Z,30.13
2018-09-18T14:35:50.524Z,30.11
2018-09-18T14:38:19.204Z,30.11
2018-09-18T14:40:48.236Z,30.23
2018-09-18T14:43:17.170Z,30.23
2018-09-18T14:45:45.980Z,30.21
2018-09-18T14:48:14.430Z,30.24
2018-09-18T14:50:42.904Z,30.12
2018-09-18T14:53:11.663Z,30.17
2018-09-18T14:55:40.281Z,30.02
2018-09-18T14:58:08.864Z,30.14
2018-09-18T15:00:37.718Z,30.21
2018-09-18T15:03:06.366Z,30.13
2018-09-18T15:05:34.964Z,30.12
2018-09-18T15:08:03.549Z,30.16
2018-09-18T15:10:32.499Z,30.20
2018-09-18T15:13:01.223Z,30.20
2018-09-18T15:15:30.586Z,30.26
2018-09-18T15:17:59.112Z,30.28
2018-09-18T15:20:28.428Z,30.17
2018-09-18T15:22:57.037Z,30.16
2018-09-18T15:25:26.096Z,30.07
2018-09-18T15:27:54.681Z,30.01
2018-09-18T15:30:23.320Z,29.92
2018-09-18T15:32:51.843Z,30.18
2018-09-18T15:35:20.264Z,30.19
2018-09-18T15:37:48.951Z,30.22
2018-09-18T15:40:17.541Z,30.11
2018-09-18T15:42:46.059Z,30.04
2018-09-18T15:45:14.722Z,30.10
2018-09-18T15:47:43.217Z,30.10
2018-09-18T15:50:11.696Z,30.08
2018-09-18T15:52:40.261Z,29.91
2018-09-18T15:55:08.921Z,29.83
2018-09-18T15:57:37.404Z,29.70
2018-09-18T16:00:05.979Z,29.74
2018-09-18T16:02:34.598Z,29.66
2018-09-18T16:05:03.219Z,29.65
2018-09-18T16:07:31.732Z,29.68
2018-09-18T16:10:00.332Z,29.67
2018-09-18T16:12:28.901Z,29.55
2018-09-18T16:14:57.760Z,29.51
2018-09-18T16:17:26.268Z,29.46
2018-09-18T16:19:54.752Z,29.41
2018-09-18T16:22:23.298Z,29.34
2018-09-18T16:24:52.097Z,29.26
2018-09-18T16:27:20.523Z,29.22
2018-09-18T16:29:49.197Z,29.19
2018-09-18T16:32:17.878Z,29.18
2018-09-18T16:34:46.522Z,29.21
2018-09-18T16:37:15.172Z,29.14
2018-09-18T16:39:43.722Z,28.90
2018-09-18T16:42:12.397Z,28.92
2018-09-18T16:44:41.325Z,28.89
2018-09-18T16:47:10.202Z,28.78
2018-09-18T16:49:39.088Z,28.76
2018-09-18T16:54:36.717Z,28.61
2018-09-18T16:57:06.885Z,28.55
2018-09-18T16:59:35.765Z,28.47
2018-09-18T17:02:04.910Z,28.37
2018-09-18T17:04:33.872Z,28.27
2018-09-18T17:07:02.911Z,28.20
2018-09-18T17:09:32.076Z,28.07
2018-09-18T17:12:00.841Z,28.02
2018-09-18T17:14:29.556Z,27.91
2018-09-18T17:16:58.603Z,27.80
2018-09-18T17:19:27.653Z,27.75
2018-09-18T17:21:56.530Z,27.64
2018-09-18T17:24:25.707Z,27.51
2018-09-18T17:26:55.227Z,27.43
2018-09-18T17:29:24.113Z,27.28
2018-09-18T17:31:53.048Z,27.18
2018-09-18T17:34:21.930Z,27.05
2018-09-18T17:36:51.298Z,26.96
2018-09-18T17:39:20.071Z,26.82
2018-09-18T17:41:49.190Z,26.67
2018-09-18T17:44:18.055Z,26.58
2018-09-18T17:46:47.683Z,26.44
2018-09-18T17:49:16.855Z,26.42
2018-09-18T17:51:45.557Z,26.27
2018-09-18T17:54:14.460Z,26.16
2018-09-18T17:56:43.563Z,25.99
2018-09-18T17:59:12.696Z,26.01
2018-09-18T18:01:41.952Z,25.98
2018-09-18T18:04:10.950Z,25.95
2018-09-18T18:06:39.998Z,25.91
2018-09-18T18:09:09.513Z,25.91
2018-09-18T18:11:38.226Z,25.83
2018-09-18T18:14:07.068Z,25.77
2018-09-18T18:16:35.861Z,25.70
2018-09-18T18:19:04.661Z,25.65
2018-09-18T18:21:33.438Z,25.57
2018-09-18T18:24:02.360Z,25.52
2018-09-18T18:26:31.299Z,25.45
2018-09-18T18:29:00.004Z,25.43
2018-09-18T18:31:28.894Z,25.37
2018-09-18T18:33:58.399Z,25.33
2018-09-18T18:36:27.204Z,25.26
2018-09-18T18:38:58.216Z,25.19
2018-09-18T18:41:27.219Z,25.13
2018-09-18T18:43:56.865Z,24.99
2018-09-18T18:46:27.860Z,24.92
2018-09-18T18:48:59.042Z,24.83
2018-09-18T18:51:30.933Z,24.78
2018-09-18T18:54:02.932Z,24.74
2018-09-18T18:56:34.740Z,24.69
2018-09-18T18:59:05.938Z,24.61
2018-09-18T19:01:36.563Z,24.57
2018-09-18T19:04:05.481Z,24.52
2018-09-18T19:06:35.462Z,24.47
2018-09-18T19:09:08.144Z,24.28
2018-09-18T19:11:36.729Z,24.30
2018-09-18T19:14:05.515Z,24.27
2018-09-18T19:16:34.404Z,24.18
2018-09-18T19:19:03.220Z,24.14
2018-09-18T19:21:32.107Z,24.08
2018-09-18T19:24:01.006Z,24.03
2018-09-18T19:26:30.470Z,24.06
2018-09-18T19:28:59.991Z,24.01
2018-09-18T19:31:28.858Z,23.97
2018-09-18T19:33:57.784Z,23.92
2018-09-18T19:36:26.553Z,23.90
2018-09-18T19:38:55.380Z,23.83
2018-09-18T19:41:24.336Z,23.85
2018-09-18T19:43:53.511Z,23.80
2018-09-18T19:46:22.308Z,23.77
2018-09-18T19:48:51.140Z,23.75
2018-09-18T19:51:20.066Z,23.70
2018-09-18T19:53:48.921Z,23.64
2018-09-18T19:56:18.896Z,23.62
2018-09-18T19:58:47.405Z,23.59
2018-09-18T20:01:15.866Z,23.47
2018-09-18T20:03:45.003Z,23.34
2018-09-18T20:06:13.554Z,23.35
2018-09-18T20:08:42.356Z,23.29
2018-09-18T20:11:10.915Z,23.27
2018-09-18T20:13:39.381Z,23.17
2018-09-18T20:16:08.042Z,23.11
2018-09-18T20:18:36.696Z,23.12
2018-09-18T20:21:05.248Z,23.15
2018-09-18T20:23:33.791Z,23.10
2018-09-18T20:26:02.477Z,23.18
2018-09-18T20:28:31.119Z,23.13
2018-09-18T20:31:00.199Z,23.12
2018-09-18T20:33:29.063Z,23.05
2018-09-18T20:35:57.852Z,23.05
2018-09-18T20:38:26.438Z,23.05
2018-09-18T20:40:54.911Z,23.05
2018-09-18T20:43:23.373Z,23.07
2018-09-18T20:45:51.847Z,23.01
2018-09-18T20:48:20.612Z,22.99
2018-09-18T20:50:49.198Z,22.96
2018-09-18T20:53:17.555Z,22.93
2018-09-18T20:55:46.176Z,22.89
2018-09-18T20:58:14.698Z,22.87
2018-09-18T21:00:43.411Z,22.86
2018-09-18T21:03:12.685Z,22.83
2018-09-18T21:05:41.422Z,22.80
2018-09-18T21:08:09.960Z,22.79
2018-09-18T21:10:39.414Z,22.74
2018-09-18T21:13:07.923Z,22.71
2018-09-18T21:15:36.391Z,22.66
2018-09-18T21:18:04.946Z,22.67
2018-09-18T21:20:33.861Z,22.64
2018-09-18T21:23:02.424Z,22.63
2018-09-18T21:25:34.542Z,22.62
2018-09-18T21:28:03.592Z,22.65
2018-09-18T21:30:32.394Z,22.62
2018-09-18T21:33:00.880Z,22.64
2018-09-18T21:35:29.499Z,22.61
2018-09-18T21:37:58.515Z,22.61
2018-09-18T21:40:27.283Z,22.57
2018-09-18T21:42:56.072Z,22.57
2018-09-18T21:45:25.011Z,22.55
2018-09-18T21:47:53.468Z,22.56
2018-09-18T21:50:21.888Z,22.56
2018-09-18T21:52:50.367Z,22.58
2018-09-18T21:55:18.835Z,22.56
2018-09-18T21:57:47.383Z,22.54
2018-09-18T22:00:15.836Z,22.56
2018-09-18T22:02:44.261Z,22.54
2018-09-18T22:05:12.764Z,22.54
2018-09-18T22:07:41.178Z,22.51
2018-09-18T22:10:09.577Z,22.48
2018-09-18T22:12:38.314Z,22.48
2018-09-18T22:15:06.722Z,22.44
2018-09-18T22:17:35.128Z,22.42
2018-09-18T22:20:03.843Z,22.41
2018-09-18T22:22:32.655Z,22.38
2018-09-18T22:25:01.198Z,22.33
2018-09-18T22:27:29.714Z,22.29
2018-09-18T22:29:58.770Z,22.24
2018-09-18T22:32:27.291Z,22.18
2018-09-18T22:34:55.894Z,22.15
2018-09-18T22:37:24.386Z,22.13
2018-09-18T22:39:52.913Z,22.03
2018-09-18T22:42:22.364Z,22.00
2018-09-18T22:44:50.850Z,21.90
2018-09-18T22:47:19.597Z,21.88
2018-09-18T22:49:48.502Z,21.75
2018-09-18T22:52:17.113Z,21.72
2018-09-18T22:54:45.598Z,21.62
2018-09-18T22:57:14.278Z,21.62
2018-09-18T22:59:42.817Z,21.63
2018-09-18T23:02:11.315Z,21.56
2018-09-18T23:04:40.164Z,21.55
2018-09-18T23:07:08.635Z,21.54
2018-09-18T23:09:37.085Z,21.48
2018-09-18T23:12:05.593Z,21.34
2018-09-18T23:14:34.072Z,21.21
2018-09-18T23:17:02.558Z,21.23
2018-09-18T23:19:31.027Z,21.23
2018-09-18T23:21:59.583Z,21.23
2018-09-18T23:24:28.323Z,21.18
2018-09-18T23:26:57.011Z,21.19
2018-09-18T23:29:25.619Z,21.18
2018-09-18T23:31:54.741Z,21.11
2018-09-18T23:34:24.858Z,21.01
2018-09-18T23:36:53.368Z,20.95
2018-09-18T23:39:22.455Z,20.93
2018-09-18T23:41:50.981Z,20.93
2018-09-18T23:44:19.807Z,20.89
2018-09-18T23:46:48.269Z,20.85
2018-09-18T23:49:17.026Z,20.86
2018-09-18T23:51:45.472Z,20.70
2018-09-18T23:54:14.151Z,20.65
2018-09-18T23:56:42.650Z,20.66
2018-09-18T23:59:11.060Z,20.58
